Dalton, Georgia
Current Conditions -  °F | °C
As of 5:35 PM on Friday 19 Dec 2014 (Local Time) from KDNN Reporting Station
Clear Clear  
Wind Chill: 39°   Ceiling: Unl
Heat Index: 43°   Visibility: 10mi
Dew Point: 32°   Wind: 7mph
Humidity: 66%   Direction: 330°NNW
Pressure: 30.15"   Gusts: NA
Location:  34.76°N, 84.97°W
Report Text: KDNN 192235Z AUTO 33006KT 10SM CLR 06/00 A3015 RMK AO2
Loading
Personal Weather Stations






























Interactive Weather Map New forecast layout! Learn more

10-Day Weather Forecast

Advertisements
Track Severe Weather on mobile